Time;durP1;ratioP1;P1;durP2;ratioP2;P2;SDS_P1;SDS_P2;PMS_P1;PMS_P2;Temp;Humidity;BMP_temperature;BMP_pressure;BME280_temperature;BME280_humidity;BME280_pressure;Samples;Min_cycle;Max_cycle;Signal;HPM_P1;HPM_P2
2023/07/05 00:01:05;;;;;;;15.00;10.50;;;;;;;12.90;75.34;100497.75;105496;1257;72765;-47
2023/07/05 00:03:34;;;;;;;15.70;10.20;;;;;;;12.89;75.56;100496.91;105470;1257;69983;-47
2023/07/05 00:06:04;;;;;;;13.30;9.70;;;;;;;12.89;75.72;100495.48;105510;1257;70025;-47
2023/07/05 00:08:33;;;;;;;13.80;10.40;;;;;;;12.87;75.74;100497.52;105539;1256;73239;-47
2023/07/05 00:11:07;;;;;;;15.00;10.10;;;;;;;12.85;75.83;100504.43;105506;1257;83270;-48
2023/07/05 00:13:35;;;;;;;14.00;9.90;;;;;;;12.88;76.21;100498.88;105516;1257;73845;-47
2023/07/05 00:16:04;;;;;;;13.60;9.20;;;;;;;12.89;76.06;100496.38;105508;1253;70004;-48
2023/07/05 00:18:33;;;;;;;13.70;9.00;;;;;;;12.90;76.13;100494.59;105527;1257;69948;-48
2023/07/05 00:21:05;;;;;;;10.90;8.50;;;;;;;12.91;76.06;100495.58;105563;1254;73550;-47
2023/07/05 00:23:35;;;;;;;12.60;8.90;;;;;;;12.88;75.91;100494.30;105480;1257;83687;-47
2023/07/05 00:26:05;;;;;;;14.40;9.10;;;;;;;12.83;75.70;100489.08;105464;1253;74011;-48
2023/07/05 00:28:34;;;;;;;12.90;8.30;;;;;;;12.83;75.72;100479.45;105523;1254;70220;-47
2023/07/05 00:31:03;;;;;;;12.70;9.00;;;;;;;12.79;75.66;100476.11;105496;1257;69986;-48
2023/07/05 00:33:32;;;;;;;12.90;9.10;;;;;;;12.77;75.88;100481.34;105502;1254;74706;-46
2023/07/05 00:36:00;;;;;;;14.50;9.50;;;;;;;12.72;75.77;100484.32;105330;1254;82207;-48
2023/07/05 00:38:29;;;;;;;15.80;9.60;;;;;;;12.70;75.92;100484.43;105525;1254;72814;-48
2023/07/05 00:40:58;;;;;;;13.70;9.50;;;;;;;12.69;76.08;100484.46;105507;1254;69989;-48
2023/07/05 00:43:26;;;;;;;11.60;8.80;;;;;;;12.68;76.26;100480.98;105526;1257;69914;-47
2023/07/05 00:46:15;;;;;;;12.80;9.70;;;;;;;12.66;76.30;100478.82;105521;1254;74018;-47
2023/07/05 00:48:52;;;;;;;12.20;9.40;;;;;;;12.64;76.74;100472.59;105440;1256;83694;-49
2023/07/05 00:51:25;;;;;;;14.50;9.70;;;;;;;12.62;76.53;100474.64;105491;1254;73755;-47
2023/07/05 00:53:57;;;;;;;12.10;9.30;;;;;;;12.58;76.58;100475.31;105322;1257;70087;-47
2023/07/05 00:56:32;;;;;;;16.30;10.20;;;;;;;12.53;76.61;100471.32;105509;1254;69887;-48
2023/07/05 00:59:01;;;;;;;13.70;9.20;;;;;;;12.49;76.63;100471.15;105456;1254;74007;-47
2023/07/05 01:01:30;;;;;;;15.00;9.50;;;;;;;12.45;76.69;100476.92;105379;1254;83468;-47
2023/07/05 01:03:59;;;;;;;14.80;9.40;;;;;;;12.41;76.75;100473.44;105488;1253;72680;-47
2023/07/05 01:06:27;;;;;;;14.30;9.30;;;;;;;12.38;76.75;100468.30;105512;1254;69820;-48
2023/07/05 01:08:56;;;;;;;12.60;9.40;;;;;;;12.35;76.86;100467.20;105462;1259;69967;-48
2023/07/05 01:11:35;;;;;;;19.30;9.70;;;;;;;12.31;76.74;100464.42;105464;1254;73815;-46
2023/07/05 01:14:16;;;;;;;18.70;9.10;;;;;;;12.26;76.79;100459.87;105463;1254;81672;-48
2023/07/05 01:17:19;;;;;;;12.70;8.70;;;;;;;12.23;76.98;100458.23;105449;1257;73656;-47
2023/07/05 01:19:55;;;;;;;14.20;8.80;;;;;;;12.19;77.07;100458.59;105457;1254;71464;-48
2023/07/05 01:22:49;;;;;;;14.60;9.30;;;;;;;12.15;77.24;100455.24;105277;1254;69982;-47
2023/07/05 01:25:46;;;;;;;11.60;8.40;;;;;;;12.11;77.12;100458.58;105512;1257;72503;-47
2023/07/05 01:28:57;;;;;;;13.70;8.60;;;;;;;12.08;77.24;100456.81;105356;1259;83698;-47
2023/07/05 01:31:43;;;;;;;12.70;9.10;;;;;;;12.03;77.45;100453.13;105046;1257;73947;-48
2023/07/05 01:34:34;;;;;;;14.00;8.80;;;;;;;11.99;77.61;100454.18;105464;1254;69983;-47
2023/07/05 01:37:05;;;;;;;14.50;9.50;;;;;;;11.97;77.63;100451.15;105498;1254;69973;-47
2023/07/05 01:39:34;;;;;;;14.20;9.70;;;;;;;11.93;77.63;100447.61;105475;1254;74814;-48
2023/07/05 01:42:03;;;;;;;14.10;9.40;;;;;;;11.92;77.76;100451.18;105362;1254;82500;-48
2023/07/05 01:44:32;;;;;;;14.60;9.10;;;;;;;11.92;78.06;100452.95;105490;1257;73984;-47
2023/07/05 01:47:06;;;;;;;13.80;10.00;;;;;;;11.93;78.37;100452.72;105397;1254;69996;-48
2023/07/05 01:49:58;;;;;;;15.30;9.40;;;;;;;11.93;78.29;100453.59;105462;1256;69999;-47
2023/07/05 01:52:35;;;;;;;17.30;10.00;;;;;;;11.90;78.44;100452.83;105516;1254;75053;-49
2023/07/05 01:55:10;;;;;;;14.90;9.20;;;;;;;11.88;78.55;100454.64;105506;1254;82562;-48
2023/07/05 01:57:58;;;;;;;15.20;9.40;;;;;;;11.88;78.66;100447.83;105491;1254;73781;-48
2023/07/05 02:00:28;;;;;;;14.80;10.00;;;;;;;11.87;78.73;100448.58;105469;1255;70084;-48
2023/07/05 02:03:02;;;;;;;14.00;9.50;;;;;;;11.87;78.71;100450.16;105509;1258;69950;-47
2023/07/05 02:05:32;;;;;;;15.00;10.00;;;;;;;11.85;78.93;100447.93;105468;1254;74805;-47
2023/07/05 02:08:01;;;;;;;16.10;10.60;;;;;;;11.85;78.98;100447.75;105403;1259;83289;-47
2023/07/05 02:10:29;;;;;;;16.10;10.80;;;;;;;11.85;79.06;100444.42;105524;1254;73758;-47
2023/07/05 02:12:58;;;;;;;15.30;10.70;;;;;;;11.85;79.05;100442.15;105512;1254;69978;-48
2023/07/05 02:15:26;;;;;;;18.20;11.40;;;;;;;11.83;78.90;100438.34;105471;1253;70238;-48
2023/07/05 02:17:55;;;;;;;17.80;11.40;;;;;;;11.80;79.01;100436.21;105447;1254;74923;-47
2023/07/05 02:20:23;;;;;;;12.50;9.30;;;;;;;11.78;79.07;100435.96;105374;1259;83456;-48
2023/07/05 02:22:52;;;;;;;16.60;11.30;;;;;;;11.78;79.27;100435.27;105470;1260;74046;-48
2023/07/05 02:25:21;;;;;;;17.80;10.30;;;;;;;11.77;79.45;100433.17;105490;1253;69995;-47
2023/07/05 02:27:50;;;;;;;15.70;10.40;;;;;;;11.76;79.46;100435.67;105535;1254;69972;-47
2023/07/05 02:30:18;;;;;;;19.20;10.80;;;;;;;11.77;79.62;100433.36;105406;1259;75153;-47
2023/07/05 02:32:46;;;;;;;16.20;11.20;;;;;;;11.79;79.72;100430.46;105477;1257;83700;-47
2023/07/05 02:35:15;;;;;;;17.70;11.00;;;;;;;11.81;79.89;100430.05;105479;1254;73794;-47
2023/07/05 02:37:44;;;;;;;18.60;11.10;;;;;;;11.82;79.87;100425.46;105408;1254;70008;-47
2023/07/05 02:40:12;;;;;;;14.60;10.50;;;;;;;11.82;79.95;100424.08;105443;1257;70788;-49
2023/07/05 02:42:41;;;;;;;15.50;11.60;;;;;;;11.82;80.06;100424.23;105535;1254;73979;-48
2023/07/05 02:45:10;;;;;;;15.30;11.10;;;;;;;11.81;80.06;100424.25;105459;1257;83095;-47
2023/07/05 02:47:38;;;;;;;16.10;11.20;;;;;;;11.80;79.89;100425.55;105384;1258;72347;-47
2023/07/05 02:50:08;;;;;;;15.20;11.40;;;;;;;11.78;79.88;100427.89;105516;1257;70000;-47
2023/07/05 02:52:36;;;;;;;16.80;11.50;;;;;;;11.76;79.94;100425.36;105481;1254;69985;-48
2023/07/05 02:55:05;;;;;;;16.70;11.90;;;;;;;11.75;80.11;100425.05;105471;1255;73835;-47
2023/07/05 02:57:34;;;;;;;16.00;11.10;;;;;;;11.77;80.28;100421.48;105563;1252;83120;-47
2023/07/05 03:00:04;;;;;;;16.90;11.50;;;;;;;11.75;80.07;100421.02;105531;1254;72739;-47
2023/07/05 03:02:33;;;;;;;16.40;11.80;;;;;;;11.74;80.12;100417.36;105485;1254;69980;-47
2023/07/05 03:05:09;;;;;;;17.70;11.20;;;;;;;11.73;80.18;100418.47;105576;1256;70392;-48
2023/07/05 03:07:37;;;;;;;18.90;12.00;;;;;;;11.71;80.21;100420.33;105545;1257;73820;-48
2023/07/05 03:10:07;;;;;;;21.00;12.10;;;;;;;11.68;80.23;100418.13;105515;1254;83356;-47
2023/07/05 03:12:35;;;;;;;21.00;11.90;;;;;;;11.68;80.33;100418.17;105460;1254;73951;-47
2023/07/05 03:15:04;;;;;;;20.30;11.90;;;;;;;11.68;80.48;100407.50;105460;1254;69980;-46
2023/07/05 03:17:33;;;;;;;17.70;11.10;;;;;;;11.69;80.57;100408.70;105523;1254;69913;-47
2023/07/05 03:20:02;;;;;;;22.30;12.50;;;;;;;11.69;80.73;100404.98;105504;1254;73974;-47
2023/07/05 03:22:30;;;;;;;18.40;12.20;;;;;;;11.71;80.74;100406.13;105514;1256;83782;-47
2023/07/05 03:24:59;;;;;;;18.50;12.00;;;;;;;11.73;80.73;100406.23;105513;1253;73165;-46
2023/07/05 03:27:31;;;;;;;18.10;11.30;;;;;;;11.74;80.80;100405.48;105477;1255;70584;-47
2023/07/05 03:30:00;;;;;;;19.00;12.30;;;;;;;11.74;80.71;100402.14;105460;1256;69935;-46
2023/07/05 03:32:29;;;;;;;17.80;11.70;;;;;;;11.75;81.07;100402.45;105504;1254;75116;-47
2023/07/05 03:34:59;;;;;;;18.70;11.60;;;;;;;11.79;81.27;100402.11;105515;1257;83353;-46
2023/07/05 03:37:29;;;;;;;18.00;12.40;;;;;;;11.84;81.35;100401.58;105498;1254;72772;-46
2023/07/05 03:39:57;;;;;;;19.50;11.10;;;;;;;11.89;81.41;100401.94;105245;1259;70123;-46
2023/07/05 03:42:26;;;;;;;16.90;12.30;;;;;;;11.93;81.52;100399.29;105559;1257;70011;-47
2023/07/05 03:44:54;;;;;;;19.10;12.20;;;;;;;11.99;81.59;100398.16;105477;1253;74336;-46
2023/07/05 03:47:22;;;;;;;18.90;12.30;;;;;;;12.04;81.62;100389.00;105531;1253;83383;-46
2023/07/05 03:49:50;;;;;;;16.00;11.90;;;;;;;12.10;81.65;100386.80;105437;1254;73081;-46
2023/07/05 03:52:19;;;;;;;19.20;11.90;;;;;;;12.16;81.79;100385.68;105446;1257;69982;-48
2023/07/05 03:54:47;;;;;;;18.00;11.80;;;;;;;12.22;81.79;100386.29;105513;1254;69931;-48
2023/07/05 03:57:15;;;;;;;20.80;12.10;;;;;;;12.30;81.97;100383.49;105572;1254;74712;-46
2023/07/05 03:59:46;;;;;;;18.20;11.20;;;;;;;12.38;82.08;100384.34;105429;1254;83995;-46
2023/07/05 04:02:15;;;;;;;18.10;11.50;;;;;;;12.47;82.31;100379.74;105478;1255;73398;-47
2023/07/05 04:04:44;;;;;;;17.20;11.00;;;;;;;12.55;82.58;100377.46;105505;1254;69857;-46
2023/07/05 04:07:12;;;;;;;19.60;12.40;;;;;;;12.65;82.62;100375.22;105502;1257;69925;-46
2023/07/05 04:09:41;;;;;;;20.90;12.70;;;;;;;12.77;82.69;100372.92;105496;1254;73957;-46
2023/07/05 04:12:10;;;;;;;18.30;12.60;;;;;;;12.88;82.86;100373.65;105478;1257;83078;-47
2023/07/05 04:14:38;;;;;;;16.30;12.50;;;;;;;13.00;82.85;100375.92;105436;1254;73604;-47
2023/07/05 04:17:07;;;;;;;22.20;13.70;;;;;;;13.11;83.19;100375.52;105508;1254;69811;-46
2023/07/05 04:19:35;;;;;;;21.90;14.70;;;;;;;13.24;83.45;100374.07;105447;1253;69900;-46
2023/07/05 04:22:04;;;;;;;19.40;14.50;;;;;;;13.36;83.51;100369.64;105533;1257;74593;-47
2023/07/05 04:24:32;;;;;;;19.30;14.80;;;;;;;13.51;83.92;100371.21;105519;1254;82602;-46
2023/07/05 04:27:00;;;;;;;19.60;14.70;;;;;;;13.66;84.53;100369.57;105551;1254;73863;-46
2023/07/05 04:29:29;;;;;;;21.60;15.20;;;;;;;13.79;84.56;100369.09;105442;1254;69851;-47
2023/07/05 04:31:57;;;;;;;23.30;15.20;;;;;;;13.91;84.66;100366.88;105456;1254;69915;-46
2023/07/05 04:34:26;;;;;;;19.50;14.80;;;;;;;14.02;84.37;100366.84;105467;1254;74848;-47
2023/07/05 04:36:54;;;;;;;22.30;15.90;;;;;;;14.14;84.08;100369.38;105449;1254;83507;-47
2023/07/05 04:39:22;;;;;;;22.70;16.50;;;;;;;14.26;83.81;100370.33;105466;1257;73926;-47
2023/07/05 04:41:50;;;;;;;23.70;16.20;;;;;;;14.37;83.52;100365.52;105456;1254;70274;-47
2023/07/05 04:44:19;;;;;;;24.40;17.70;;;;;;;14.51;83.14;100363.54;105445;1257;69937;-47
2023/07/05 04:46:47;;;;;;;26.20;18.10;;;;;;;14.64;82.61;100364.27;105551;1254;74545;-47
2023/07/05 04:49:16;;;;;;;24.30;17.20;;;;;;;14.76;82.45;100362.43;105467;1254;82866;-47
2023/07/05 04:51:44;;;;;;;22.30;17.10;;;;;;;14.86;82.71;100358.30;105491;1257;72044;-48
2023/07/05 04:54:14;;;;;;;25.70;18.10;;;;;;;14.98;82.71;100358.73;105431;1254;70059;-47
2023/07/05 04:56:43;;;;;;;23.30;17.30;;;;;;;15.08;82.08;100359.58;105500;1257;70001;-47
2023/07/05 04:59:11;;;;;;;23.10;18.10;;;;;;;15.16;81.81;100356.11;105532;1257;75266;-47
2023/07/05 05:01:40;;;;;;;27.60;20.10;;;;;;;15.25;81.31;100352.27;105458;1253;83819;-46
2023/07/05 05:04:09;;;;;;;28.70;19.60;;;;;;;15.33;80.86;100353.04;105510;1254;73749;-46
2023/07/05 05:06:37;;;;;;;25.90;17.90;;;;;;;15.43;80.41;100352.29;105484;1254;69989;-47
2023/07/05 05:09:06;;;;;;;26.40;19.50;;;;;;;15.52;80.08;100355.47;105470;1254;69975;-47
2023/07/05 05:11:34;;;;;;;27.50;19.50;;;;;;;15.61;79.81;100351.59;105505;1254;73936;-48
2023/07/05 05:14:02;;;;;;;24.70;18.30;;;;;;;15.71;79.68;100349.77;105457;1257;82641;-46
2023/07/05 05:16:32;;;;;;;25.50;18.00;;;;;;;15.81;79.52;100348.16;105425;1254;73087;-47
2023/07/05 05:19:00;;;;;;;25.70;19.00;;;;;;;15.93;79.56;100343.02;105505;1254;69973;-48
2023/07/05 05:21:29;;;;;;;26.70;18.80;;;;;;;16.06;79.31;100339.77;105463;1255;69910;-47
2023/07/05 05:23:57;;;;;;;27.60;19.00;;;;;;;16.16;78.95;100337.73;105571;1257;75019;-46
2023/07/05 05:26:26;;;;;;;24.70;17.20;;;;;;;16.26;78.77;100336.59;105496;1254;83787;-48
2023/07/05 05:28:54;;;;;;;23.00;17.90;;;;;;;16.36;78.43;100337.55;105483;1257;73782;-48
2023/07/05 05:31:22;;;;;;;23.50;17.10;;;;;;;16.44;78.21;100331.58;105465;1254;69972;-47
2023/07/05 05:33:51;;;;;;;26.60;18.30;;;;;;;16.53;77.97;100328.92;105414;1254;69979;-47
2023/07/05 05:36:19;;;;;;;23.70;18.60;;;;;;;16.61;77.51;100327.55;105480;1255;73923;-47
2023/07/05 05:38:47;;;;;;;22.80;18.40;;;;;;;16.69;77.79;100324.88;105495;1257;83081;-47
2023/07/05 05:41:16;;;;;;;23.70;18.30;;;;;;;16.81;77.97;100325.80;105735;1256;72162;-47
2023/07/05 05:43:45;;;;;;;23.40;18.40;;;;;;;16.90;77.56;100319.52;105572;1254;69871;-47
2023/07/05 05:46:13;;;;;;;23.70;18.10;;;;;;;16.99;77.30;100315.43;105648;1254;69875;-48
2023/07/05 05:48:42;;;;;;;27.10;19.10;;;;;;;17.11;77.66;100309.34;105714;1256;74544;-46
2023/07/05 05:51:11;;;;;;;24.20;17.40;;;;;;;17.24;77.20;100312.20;105714;1256;82870;-48
2023/07/05 05:53:39;;;;;;;26.00;17.60;;;;;;;17.35;76.87;100316.95;105669;1254;74105;-46
2023/07/05 05:56:08;;;;;;;22.90;15.80;;;;;;;17.45;76.20;100323.34;105595;1252;69982;-47
2023/07/05 05:58:36;;;;;;;22.90;16.50;;;;;;;17.56;75.69;100321.75;105611;1257;69989;-50
2023/07/05 06:01:05;;;;;;;21.80;16.00;;;;;;;17.67;75.29;100314.45;105804;1256;75174;-48
2023/07/05 06:03:34;;;;;;;25.20;16.50;;;;;;;17.78;74.45;100315.45;105787;1254;83938;-47
2023/07/05 06:06:03;;;;;;;26.00;17.90;;;;;;;17.89;74.08;100316.14;105631;1254;73859;-47
2023/07/05 06:08:32;;;;;;;22.20;16.50;;;;;;;18.01;73.67;100317.11;105608;1257;69973;-47
2023/07/05 06:11:05;;;;;;;22.80;17.10;;;;;;;18.13;73.50;100316.96;105735;1254;70001;-48
2023/07/05 06:13:34;;;;;;;25.70;17.60;;;;;;;18.26;73.21;100310.40;105680;1254;74914;-48
2023/07/05 06:16:04;;;;;;;24.80;17.60;;;;;;;18.39;72.76;100310.56;105631;1254;82489;-47
2023/07/05 06:18:35;;;;;;;23.10;17.70;;;;;;;18.54;72.35;100311.61;105108;1257;73835;-47
2023/07/05 06:21:03;;;;;;;20.90;16.60;;;;;;;18.69;72.01;100311.06;105229;1257;70012;-47
2023/07/05 06:23:32;;;;;;;24.60;18.30;;;;;;;18.84;71.75;100309.48;105148;1256;69989;-47
2023/07/05 06:26:00;;;;;;;26.50;18.20;;;;;;;18.97;71.09;100306.20;105147;1261;73574;-47
2023/07/05 06:28:28;;;;;;;23.20;18.60;;;;;;;19.07;70.34;100304.92;105146;1261;83211;-47
2023/07/05 06:31:04;;;;;;;20.70;17.40;;;;;;;19.15;69.23;100299.05;105198;1262;73506;-47
2023/07/05 06:33:33;;;;;;;26.10;19.00;;;;;;;19.23;68.91;100296.88;105238;1257;70016;-47
2023/07/05 06:36:01;;;;;;;26.50;20.00;;;;;;;19.30;68.66;100295.22;105398;1261;70766;-47
2023/07/05 06:38:30;;;;;;;22.80;19.00;;;;;;;19.39;68.55;100292.42;105817;1254;74571;-47
2023/07/05 06:40:58;;;;;;;22.00;18.90;;;;;;;19.48;68.31;100288.92;105555;1254;82590;-46
2023/07/05 06:43:27;;;;;;;25.50;19.10;;;;;;;19.56;68.27;100287.44;105592;1256;72829;-47
2023/07/05 06:45:56;;;;;;;24.50;18.20;;;;;;;19.65;67.96;100279.71;105743;1254;70005;-46
2023/07/05 06:48:25;;;;;;;24.40;19.30;;;;;;;19.74;67.74;100276.17;105742;1254;69890;-48
2023/07/05 06:50:55;;;;;;;23.50;19.10;;;;;;;19.87;67.36;100277.64;105794;1254;75026;-47
2023/07/05 06:53:23;;;;;;;24.90;18.70;;;;;;;20.01;66.75;100271.58;105625;1256;82652;-47
2023/07/05 06:55:56;;;;;;;25.30;20.00;;;;;;;20.15;66.47;100268.55;105185;1260;73599;-47
2023/07/05 06:58:24;;;;;;;25.70;19.30;;;;;;;20.30;66.04;100275.63;105132;1262;70271;-47
2023/07/05 07:00:53;;;;;;;26.30;20.10;;;;;;;20.44;65.45;100273.80;105105;1262;70098;-46
2023/07/05 07:03:22;;;;;;;26.60;20.80;;;;;;;20.58;65.08;100271.88;105147;1260;74588;-47
2023/07/05 07:05:54;;;;;;;27.80;20.00;;;;;;;20.72;64.55;100265.71;105042;1260;84093;-47
2023/07/05 07:08:29;;;;;;;24.00;19.70;;;;;;;20.88;64.10;100262.62;105157;1262;72839;-48
2023/07/05 07:11:01;;;;;;;26.70;20.50;;;;;;;21.02;63.30;100263.83;105143;1258;69944;-48
2023/07/05 07:13:30;;;;;;;27.60;21.00;;;;;;;21.11;62.43;100261.30;105318;1262;70073;-47
2023/07/05 07:16:10;;;;;;;24.20;19.70;;;;;;;21.22;62.04;100255.27;105707;1254;75095;-47
2023/07/05 07:18:41;;;;;;;27.20;20.20;;;;;;;21.34;61.69;100249.97;105636;1257;82338;-50
2023/07/05 07:21:09;;;;;;;28.80;20.60;;;;;;;21.46;61.24;100245.73;107067;1256;72802;-47
2023/07/05 07:23:38;;;;;;;23.70;18.70;;;;;;;21.57;60.68;100243.36;105668;1254;70065;-47
2023/07/05 07:26:10;;;;;;;29.00;19.70;;;;;;;21.66;60.32;100237.29;105741;1257;69845;-47
2023/07/05 07:28:39;;;;;;;23.00;19.60;;;;;;;21.77;60.05;100231.40;105646;1256;72541;-49
2023/07/05 07:31:14;;;;;;;25.40;19.00;;;;;;;21.85;59.77;100228.11;105358;1256;316389;-48
2023/07/05 07:33:45;;;;;;;24.60;19.20;;;;;;;21.96;59.47;100227.70;105530;1255;74118;-49
2023/07/05 07:36:16;;;;;;;24.10;19.50;;;;;;;22.05;59.21;100231.00;105570;1252;69881;-49
2023/07/05 07:38:45;;;;;;;34.90;21.90;;;;;;;22.13;58.81;100231.74;105573;1254;70319;-49
2023/07/05 07:41:17;;;;;;;29.70;19.70;;;;;;;22.23;58.97;100232.35;105588;1256;75113;-48
2023/07/05 07:43:47;;;;;;;24.90;20.10;;;;;;;22.36;58.67;100223.48;105578;1254;82382;-65
2023/07/05 07:46:17;;;;;;;;;;;;;;;22.49;58.82;100227.87;105426;1254;73973;-65
2023/07/05 07:48:47;;;;;;;23.40;18.30;;;;;;;22.63;58.62;100221.26;105536;1259;69086;-64
2023/07/05 07:51:17;;;;;;;22.70;17.30;;;;;;;22.75;58.17;100220.77;105517;1257;69189;-64
2023/07/05 07:54:06;;;;;;;22.10;18.40;;;;;;;22.81;57.47;100216.43;105509;1257;74403;-63
2023/07/05 07:56:34;;;;;;;23.40;17.80;;;;;;;22.85;57.30;100212.15;105482;1258;83891;-63
2023/07/05 07:59:06;;;;;;;23.70;18.70;;;;;;;22.91;57.27;100210.16;105523;1254;73730;-65
2023/07/05 08:01:40;;;;;;;23.00;18.00;;;;;;;23.02;57.42;100207.67;105507;1254;69175;-64
2023/07/05 08:04:11;;;;;;;20.80;16.90;;;;;;;23.14;57.50;100203.06;105554;1258;69192;-64
2023/07/05 08:06:46;;;;;;;21.50;17.80;;;;;;;23.25;57.46;100201.54;105512;1254;74930;-64
2023/07/05 08:09:17;;;;;;;22.20;17.00;;;;;;;23.41;57.33;100196.30;105558;1259;82560;-64
2023/07/05 08:11:46;;;;;;;20.60;14.90;;;;;;;23.51;57.14;100186.23;105526;1254;72416;-64
2023/07/05 08:14:17;;;;;;;20.50;15.30;;;;;;;23.69;57.19;100188.84;105529;1257;69173;-64
2023/07/05 08:16:45;;;;;;;17.40;14.90;;;;;;;23.86;56.98;100184.77;105490;1258;69208;-64
2023/07/05 08:19:14;;;;;;;22.60;15.40;;;;;;;24.02;56.36;100185.73;105521;1256;74421;-63
2023/07/05 08:21:45;;;;;;;20.30;14.90;;;;;;;24.14;56.06;100184.31;105553;1259;83683;-63
2023/07/05 08:24:14;;;;;;;21.20;14.60;;;;;;;24.24;55.55;100179.09;105491;1254;72895;-64
2023/07/05 08:26:55;;;;;;;18.30;13.80;;;;;;;24.35;54.86;100179.27;105508;1259;69182;-64
2023/07/05 08:29:24;;;;;;;18.50;14.20;;;;;;;24.47;54.08;100179.85;105526;1257;69205;-62
2023/07/05 08:31:52;;;;;;;18.40;14.10;;;;;;;24.59;53.85;100177.95;105567;1254;73871;-62
2023/07/05 08:34:21;;;;;;;21.10;13.40;;;;;;;24.74;53.92;100174.89;105462;1254;82441;-63
2023/07/05 08:36:49;;;;;;;18.30;13.30;;;;;;;24.92;53.55;100179.52;105574;1256;73969;-64
2023/07/05 08:39:17;;;;;;;14.30;12.30;;;;;;;25.07;52.89;100172.94;105471;1254;69163;-64
2023/07/05 08:41:56;;;;;;;15.70;12.50;;;;;;;25.19;52.33;100167.71;105501;1254;69187;-64
2023/07/05 08:44:43;;;;;;;18.60;13.10;;;;;;;25.36;51.85;100167.70;105516;1258;73843;-64
2023/07/05 08:47:24;;;;;;;37.60;13.90;;;;;;;25.49;51.38;100168.38;105530;1258;83944;-64
2023/07/05 08:50:14;;;;;;;25.10;13.30;;;;;;;25.66;51.28;100166.02;105604;1254;73985;-64
2023/07/05 08:53:11;;;;;;;14.90;12.20;;;;;;;25.84;50.56;100162.39;105519;1254;69058;-65
2023/07/05 08:55:55;;;;;;;15.60;12.00;;;;;;;26.01;50.29;100165.46;105544;1256;69531;-64
2023/07/05 08:58:39;;;;;;;26.20;13.40;;;;;;;26.22;49.83;100161.27;105564;1254;75132;-64
2023/07/05 09:01:25;;;;;;;13.90;11.60;;;;;;;26.35;49.30;100165.46;105587;1257;83632;-64
2023/07/05 09:03:56;;;;;;;16.40;12.10;;;;;;;26.42;48.55;100160.13;105509;1256;72864;-65
2023/07/05 09:06:49;;;;;;;46.70;13.50;;;;;;;26.54;48.20;100156.89;105545;1253;69205;-65
2023/07/05 09:09:27;;;;;;;25.60;11.80;;;;;;;26.67;47.76;100154.05;105254;1256;69256;-64
2023/07/05 09:12:03;;;;;;;14.80;11.40;;;;;;;26.83;47.12;100154.66;105563;1256;74629;-64
2023/07/05 09:15:01;;;;;;;20.00;11.70;;;;;;;26.98;47.10;100150.02;105551;1256;83345;-64
2023/07/05 09:17:35;;;;;;;20.20;11.30;;;;;;;27.13;46.03;100147.05;105285;1254;73444;-64
2023/07/05 09:20:36;;;;;;;14.30;10.90;;;;;;;27.23;45.84;100140.47;105550;1254;69138;-64
2023/07/05 09:23:09;;;;;;;15.60;11.00;;;;;;;27.40;45.40;100142.29;105626;1253;69169;-65
2023/07/05 09:25:42;;;;;;;15.50;10.50;;;;;;;27.52;45.43;100136.79;105571;1256;73935;-65
2023/07/05 09:28:39;;;;;;;442.70;69.40;;;;;;;27.69;45.12;100139.20;105558;1256;83151;-64
2023/07/05 09:31:12;;;;;;;20.30;11.90;;;;;;;27.86;44.67;100131.67;105525;1257;73777;-65
2023/07/05 09:33:53;;;;;;;16.40;10.60;;;;;;;28.01;44.22;100135.95;105449;1254;69252;-65
2023/07/05 09:36:24;;;;;;;25.30;10.50;;;;;;;28.15;44.09;100130.68;105571;1257;69204;-65
2023/07/05 09:38:57;;;;;;;12.70;9.30;;;;;;;28.30;43.31;100133.89;105582;1256;74237;-65
2023/07/05 09:41:41;;;;;;;13.20;9.70;;;;;;;28.39;42.68;100126.98;105600;1254;83382;-65
2023/07/05 09:44:09;;;;;;;12.20;9.10;;;;;;;28.48;42.27;100123.69;105570;1254;72769;-64
2023/07/05 09:46:38;;;;;;;16.70;10.60;;;;;;;28.62;42.46;100121.66;105485;1253;69208;-65
2023/07/05 09:49:17;;;;;;;15.00;9.90;;;;;;;28.82;42.33;100122.90;105575;1254;69624;-65
2023/07/05 09:51:46;;;;;;;9.60;8.50;;;;;;;29.02;41.74;100114.94;105559;1256;73774;-65
2023/07/05 09:54:21;;;;;;;186.70;36.00;;;;;;;29.18;40.99;100115.65;105572;1256;83464;-65
2023/07/05 09:56:57;;;;;;;723.10;123.30;;;;;;;29.25;40.72;100112.20;105540;1256;73266;-65
2023/07/05 09:59:26;;;;;;;35.60;11.60;;;;;;;29.39;40.80;100109.64;105553;1256;69215;-66
2023/07/05 10:02:14;;;;;;;17.00;9.00;;;;;;;29.61;40.67;100108.58;105615;1254;69655;-65
2023/07/05 10:04:50;;;;;;;11.60;8.30;;;;;;;29.83;39.97;100105.21;105509;1254;74991;-66
2023/07/05 10:07:28;;;;;;;10.10;8.30;;;;;;;29.95;39.32;100103.70;105555;1256;83501;-65
2023/07/05 10:10:08;;;;;;;25.30;9.20;;;;;;;30.00;39.07;100101.10;105554;1257;72779;-66
2023/07/05 10:12:39;;;;;;;11.20;7.40;;;;;;;30.03;38.40;100101.80;105618;1254;69172;-65
2023/07/05 10:15:21;;;;;;;10.20;7.60;;;;;;;30.08;37.89;100094.92;105600;1257;69253;-65
2023/07/05 10:17:52;;;;;;;8.90;7.50;;;;;;;30.18;38.04;100091.77;105550;1256;74632;-64
2023/07/05 10:20:32;;;;;;;57.50;10.70;;;;;;;30.21;37.75;100083.64;105522;1254;83725;-65
2023/07/05 10:23:04;;;;;;;194.10;18.00;;;;;;;30.17;37.46;100080.23;105547;1257;72744;-65
2023/07/05 10:25:35;;;;;;;9.30;6.90;;;;;;;30.10;37.47;100080.89;105540;1256;69249;-65
2023/07/05 10:28:05;;;;;;;44.90;9.20;;;;;;;30.18;37.70;100072.60;105454;1254;69175;-64
2023/07/05 10:30:51;;;;;;;10.40;7.20;;;;;;;30.41;37.64;100071.27;105488;1256;74482;-67
2023/07/05 10:33:29;;;;;;;9.40;6.30;;;;;;;30.56;36.97;100066.27;105559;1254;82912;-64
2023/07/05 10:36:05;;;;;;;10.50;6.40;;;;;;;30.57;36.93;100062.20;105547;1256;72726;-64
2023/07/05 10:38:47;;;;;;;9.30;6.20;;;;;;;30.52;36.62;100064.88;105556;1254;69138;-64
2023/07/05 10:41:15;;;;;;;16.50;6.30;;;;;;;30.50;36.19;100057.20;105616;1257;69199;-65
2023/07/05 10:43:52;;;;;;;11.00;6.10;;;;;;;30.64;36.12;100057.36;105554;1257;73944;-65
2023/07/05 10:46:23;;;;;;;11.80;5.70;;;;;;;30.55;35.74;100057.79;105291;1259;83598;-64
2023/07/05 10:48:53;;;;;;;7.10;5.30;;;;;;;30.60;35.66;100053.00;105535;1256;72539;-65
2023/07/05 10:51:25;;;;;;;9.70;5.40;;;;;;;30.91;35.65;100047.81;105491;1259;69140;-64
2023/07/05 10:54:09;;;;;;;6.90;6.00;;;;;;;30.92;35.45;100043.35;105558;1257;69173;-64
2023/07/05 10:56:38;;;;;;;8.80;5.50;;;;;;;30.96;35.34;100039.05;105542;1258;75114;-64
2023/07/05 10:59:25;;;;;;;6.30;4.90;;;;;;;31.22;35.08;100031.30;105574;1257;83427;-64
2023/07/05 11:02:20;;;;;;;15.20;4.30;;;;;;;31.28;34.95;100028.62;105542;1256;73651;-64
2023/07/05 11:04:51;;;;;;;12.60;3.50;;;;;;;31.70;34.22;100028.23;105541;1254;69156;-64
2023/07/05 11:07:20;;;;;;;11.30;3.60;;;;;;;32.08;33.52;100029.59;105542;1257;69051;-64
2023/07/05 11:09:49;;;;;;;;;;;;;;;32.37;32.64;100025.41;105622;1257;73962;-64
2023/07/05 11:12:29;;;;;;;8.90;3.10;;;;;;;32.40;31.66;100018.61;105515;1257;83589;-65
2023/07/05 11:14:58;;;;;;;4.60;3.10;;;;;;;32.48;31.66;100009.52;105541;1257;74324;-64
2023/07/05 11:17:31;;;;;;;3.60;2.60;;;;;;;32.74;31.18;100007.59;105608;1255;69109;-65
2023/07/05 11:20:01;;;;;;;4.60;2.90;;;;;;;32.85;31.00;100004.06;105515;1255;69156;-65
2023/07/05 11:22:37;;;;;;;11.10;4.70;;;;;;;32.46;30.85;100008.52;105607;1256;73937;-66
2023/07/05 11:25:12;;;;;;;164.00;14.70;;;;;;;32.08;31.30;100007.70;105531;1257;83208;-64
2023/07/05 11:27:52;;;;;;;25.80;5.00;;;;;;;31.88;31.84;99997.02;105535;1253;73940;-64